createdAt,value
2022-10-20T00:02:01.637Z,18.42
2022-10-20T00:04:29.740Z,18.41
2022-10-20T00:06:57.890Z,18.42
2022-10-20T00:09:25.205Z,18.41
2022-10-20T00:11:52.748Z,18.40
2022-10-20T00:14:20.093Z,18.40
2022-10-20T00:16:47.552Z,18.39
2022-10-20T00:19:14.881Z,18.39
2022-10-20T00:21:43.159Z,18.38
2022-10-20T00:24:10.502Z,18.38
2022-10-20T00:26:38.053Z,18.37
2022-10-20T00:29:05.718Z,18.37
2022-10-20T00:31:33.462Z,18.36
2022-10-20T00:34:00.785Z,18.36
2022-10-20T00:36:28.334Z,18.35
2022-10-20T00:39:00.754Z,18.35
2022-10-20T00:41:30.153Z,18.34
2022-10-20T00:44:03.384Z,18.34
2022-10-20T00:46:40.386Z,18.33
2022-10-20T00:49:16.049Z,18.32
2022-10-20T00:51:44.776Z,18.32
2022-10-20T00:54:16.721Z,18.30
2022-10-20T00:56:47.163Z,18.30
2022-10-20T00:59:18.520Z,18.29
2022-10-20T01:01:46.499Z,18.27
2022-10-20T01:04:15.117Z,18.27
2022-10-20T01:06:42.774Z,18.26
2022-10-20T01:09:11.498Z,18.25
2022-10-20T01:12:11.857Z,18.25
2022-10-20T01:15:00.808Z,18.24
2022-10-20T01:17:55.613Z,18.23
2022-10-20T01:21:10.888Z,18.22
2022-10-20T01:23:59.617Z,18.22
2022-10-20T01:26:48.573Z,18.21
2022-10-20T01:29:36.376Z,18.20
2022-10-20T01:32:06.670Z,18.19
2022-10-20T01:34:52.182Z,18.19
2022-10-20T01:37:48.927Z,18.18
2022-10-20T01:40:22.176Z,18.18
2022-10-20T01:42:52.585Z,18.16
2022-10-20T01:45:24.333Z,18.17
2022-10-20T01:47:53.738Z,18.15
2022-10-20T01:50:23.663Z,18.15
2022-10-20T01:52:56.343Z,18.14
2022-10-20T01:55:24.272Z,18.13
2022-10-20T01:58:09.541Z,18.13
2022-10-20T02:00:39.632Z,18.13
2022-10-20T02:03:45.283Z,18.13
2022-10-20T02:06:43.704Z,18.11
2022-10-20T02:09:18.013Z,18.11
2022-10-20T02:11:53.261Z,18.11
2022-10-20T02:14:21.519Z,18.11
2022-10-20T02:16:53.157Z,18.10
2022-10-20T02:19:23.579Z,18.09
2022-10-20T02:21:54.438Z,18.08
2022-10-20T02:24:26.695Z,18.09
2022-10-20T02:26:57.665Z,18.09
2022-10-20T02:29:30.903Z,18.09
2022-10-20T02:31:58.449Z,18.09
2022-10-20T02:34:26.909Z,18.09
2022-10-20T02:36:58.679Z,18.11
2022-10-20T02:39:26.741Z,18.09
2022-10-20T02:41:54.745Z,18.09
2022-10-20T02:44:22.890Z,18.09
2022-10-20T02:46:50.540Z,18.09
2022-10-20T02:49:18.244Z,18.09
2022-10-20T02:51:45.736Z,18.09
2022-10-20T02:54:13.020Z,18.09
2022-10-20T02:56:40.498Z,18.09
2022-10-20T02:59:15.058Z,18.09
2022-10-20T03:01:43.305Z,18.07
2022-10-20T03:04:11.409Z,18.08
2022-10-20T03:06:40.366Z,18.09
2022-10-20T03:09:07.744Z,18.06
2022-10-20T03:11:35.400Z,18.07
2022-10-20T03:14:03.333Z,18.07
2022-10-20T03:16:30.802Z,18.08
2022-10-20T03:19:01.553Z,18.06
2022-10-20T03:21:32.192Z,18.06
2022-10-20T03:23:59.542Z,18.06
2022-10-20T03:26:27.102Z,18.06
2022-10-20T03:28:54.449Z,18.06
2022-10-20T03:31:22.047Z,18.05
2022-10-20T03:33:49.814Z,18.05
2022-10-20T03:36:17.457Z,18.05
2022-10-20T03:38:45.816Z,18.05
2022-10-20T03:41:13.314Z,18.05
2022-10-20T03:43:40.854Z,18.04
2022-10-20T03:46:10.559Z,18.03
2022-10-20T03:48:38.788Z,18.04
2022-10-20T03:51:07.518Z,18.03
2022-10-20T03:53:35.540Z,18.03
2022-10-20T03:56:10.804Z,18.02
2022-10-20T03:58:38.125Z,18.02
2022-10-20T04:01:06.782Z,18.03
2022-10-20T04:03:34.193Z,18.03
2022-10-20T04:06:01.812Z,18.00
2022-10-20T04:08:29.183Z,18.01
2022-10-20T04:10:57.821Z,18.01
2022-10-20T04:13:25.225Z,18.01
2022-10-20T04:15:52.746Z,18.01
2022-10-20T04:18:20.018Z,18.00
2022-10-20T04:20:48.498Z,18.01
2022-10-20T04:23:15.886Z,18.00
2022-10-20T04:25:48.589Z,18.00
2022-10-20T04:28:20.145Z,18.01
2022-10-20T04:30:48.019Z,17.99
2022-10-20T04:33:16.125Z,17.98
2022-10-20T04:35:44.007Z,17.98
2022-10-20T04:38:11.424Z,17.97
2022-10-20T04:40:39.385Z,17.99
2022-10-20T04:43:06.734Z,17.97
2022-10-20T04:45:34.213Z,17.97
2022-10-20T04:48:02.224Z,17.97
2022-10-20T04:50:29.793Z,17.97
2022-10-20T04:52:59.402Z,17.96
2022-10-20T04:55:27.006Z,17.96
2022-10-20T04:57:54.339Z,17.96
2022-10-20T05:00:22.530Z,17.95
2022-10-20T05:02:49.815Z,17.95
2022-10-20T05:05:17.450Z,17.95
2022-10-20T05:07:44.789Z,17.94
2022-10-20T05:10:12.997Z,17.93
2022-10-20T05:12:40.318Z,17.93
2022-10-20T05:15:08.144Z,17.92
2022-10-20T05:17:36.564Z,17.92
2022-10-20T05:20:04.704Z,17.94
2022-10-20T05:22:32.006Z,17.92
2022-10-20T05:25:12.857Z,17.93
2022-10-20T05:27:47.669Z,17.92
2022-10-20T05:30:15.838Z,17.92
2022-10-20T05:32:43.260Z,17.92
2022-10-20T05:35:11.055Z,17.93
2022-10-20T05:37:38.425Z,17.92
2022-10-20T05:40:07.195Z,17.92
2022-10-20T05:42:34.922Z,17.92
2022-10-20T05:45:03.080Z,17.92
2022-10-20T05:47:30.449Z,17.91
2022-10-20T05:49:57.973Z,17.91
2022-10-20T05:52:25.392Z,17.91
2022-10-20T05:54:53.215Z,17.91
2022-10-20T05:57:20.475Z,17.90
2022-10-20T05:59:47.989Z,17.89
2022-10-20T06:02:15.295Z,17.89
2022-10-20T06:04:42.897Z,17.89
2022-10-20T06:07:11.078Z,17.89
2022-10-20T06:09:39.052Z,17.89
2022-10-20T06:14:39.798Z,17.89
2022-10-20T06:17:07.117Z,17.89
2022-10-20T06:19:34.678Z,17.89
2022-10-20T06:22:05.456Z,17.89
2022-10-20T06:24:34.768Z,17.88
2022-10-20T06:27:02.353Z,17.88
2022-10-20T06:29:29.903Z,17.89
2022-10-20T06:31:57.274Z,17.88
2022-10-20T06:34:25.884Z,17.89
2022-10-20T06:36:53.691Z,17.89
2022-10-20T06:39:23.457Z,17.89
2022-10-20T06:41:56.063Z,17.88
2022-10-20T06:44:24.496Z,17.88
2022-10-20T06:46:55.166Z,17.89
2022-10-20T06:49:23.141Z,17.88
2022-10-20T06:51:50.562Z,17.89
2022-10-20T06:54:18.564Z,17.89
2022-10-20T06:56:45.851Z,17.91
2022-10-20T06:59:13.433Z,17.92
2022-10-20T07:01:41.350Z,17.92
2022-10-20T07:04:14.138Z,17.93
2022-10-20T07:06:43.741Z,17.94
2022-10-20T07:09:15.794Z,17.95
2022-10-20T07:11:44.125Z,17.95
2022-10-20T07:14:14.959Z,17.97
2022-10-20T07:16:42.337Z,17.98
2022-10-20T07:19:10.545Z,17.98
2022-10-20T07:21:41.385Z,17.98
2022-10-20T07:24:10.660Z,17.99
2022-10-20T07:26:39.946Z,18.00
2022-10-20T07:29:08.789Z,18.01
2022-10-20T07:31:42.411Z,18.01
2022-10-20T07:34:28.142Z,18.01
2022-10-20T07:36:56.968Z,18.04
2022-10-20T07:39:25.856Z,18.05
2022-10-20T07:41:53.279Z,18.04
2022-10-20T07:44:20.969Z,18.06
2022-10-20T07:46:48.401Z,18.05
2022-10-20T07:52:03.757Z,18.08
2022-10-20T07:54:31.845Z,18.08
2022-10-20T07:56:59.145Z,18.08
2022-10-20T07:59:26.837Z,18.09
2022-10-20T08:01:57.368Z,18.10
2022-10-20T08:04:26.563Z,18.10
2022-10-20T08:06:53.925Z,18.11
2022-10-20T08:09:21.474Z,18.12
2022-10-20T08:11:52.760Z,18.12
2022-10-20T08:14:26.724Z,18.12
2022-10-20T08:17:02.124Z,18.14
2022-10-20T08:19:43.447Z,18.14
2022-10-20T08:22:11.190Z,18.16
2022-10-20T08:24:39.009Z,18.15
2022-10-20T08:27:06.356Z,18.16
2022-10-20T08:29:33.985Z,18.16
2022-10-20T08:32:01.323Z,18.17
2022-10-20T08:34:28.912Z,18.18
2022-10-20T08:36:56.245Z,18.18
2022-10-20T08:39:23.886Z,18.19
2022-10-20T08:42:08.906Z,18.20
2022-10-20T08:44:39.822Z,18.21
2022-10-20T08:47:19.267Z,18.21
2022-10-20T08:49:46.993Z,18.20
2022-10-20T08:52:15.507Z,18.22
2022-10-20T08:54:43.305Z,18.21
2022-10-20T08:57:36.993Z,18.23
2022-10-20T09:00:18.322Z,18.24
2022-10-20T09:02:47.866Z,18.23
2022-10-20T09:05:19.381Z,18.23
2022-10-20T09:07:49.794Z,18.25
2022-10-20T09:10:25.674Z,18.24
2022-10-20T09:12:53.422Z,18.26
2022-10-20T09:15:21.963Z,18.26
2022-10-20T09:18:00.838Z,18.27
2022-10-20T09:20:31.877Z,18.27
2022-10-20T09:23:04.162Z,18.28
2022-10-20T09:25:33.229Z,18.28
2022-10-20T09:28:00.553Z,18.29
2022-10-20T09:30:31.046Z,18.29
2022-10-20T09:32:58.834Z,18.28
2022-10-20T09:35:32.820Z,18.29
2022-10-20T09:38:11.458Z,18.29
2022-10-20T09:40:57.537Z,18.28
2022-10-20T09:43:27.319Z,18.31
2022-10-20T09:46:04.078Z,18.30
2022-10-20T09:48:38.318Z,18.31
2022-10-20T09:53:51.318Z,18.34
2022-10-20T09:56:49.550Z,18.33
2022-10-20T09:59:28.821Z,18.34
2022-10-20T10:02:02.253Z,18.33
2022-10-20T10:04:35.676Z,18.35
2022-10-20T10:07:05.286Z,18.34
2022-10-20T10:09:36.118Z,18.36
2022-10-20T10:12:12.565Z,18.36
2022-10-20T10:14:51.877Z,18.36
2022-10-20T10:17:39.391Z,18.36
2022-10-20T10:20:29.398Z,18.35
2022-10-20T10:23:18.957Z,18.37
2022-10-20T10:25:47.562Z,18.38
2022-10-20T10:28:29.410Z,18.38
2022-10-20T10:31:22.517Z,18.39
2022-10-20T10:34:16.500Z,18.39
2022-10-20T10:36:44.000Z,18.40
2022-10-20T10:39:14.105Z,18.39
2022-10-20T10:42:06.178Z,18.40
2022-10-20T10:44:41.875Z,18.40
2022-10-20T10:47:40.344Z,18.40
2022-10-20T10:50:26.774Z,18.41
2022-10-20T10:53:26.509Z,18.42
2022-10-20T10:56:00.102Z,18.43
2022-10-20T10:58:48.543Z,18.44
2022-10-20T11:01:50.857Z,18.42
2022-10-20T11:04:18.150Z,18.43
2022-10-20T11:07:42.780Z,18.43
2022-10-20T11:10:32.134Z,18.43
2022-10-20T11:13:08.849Z,18.40
2022-10-20T11:15:51.989Z,18.40
2022-10-20T11:19:14.522Z,18.40
2022-10-20T11:22:01.509Z,18.40
2022-10-20T11:24:41.145Z,18.42
2022-10-20T11:27:16.117Z,18.42
2022-10-20T11:29:46.523Z,18.40
2022-10-20T11:32:44.082Z,18.39
2022-10-20T11:35:18.489Z,18.38
2022-10-20T11:38:10.073Z,18.38
2022-10-20T11:40:44.882Z,18.38
2022-10-20T11:43:50.835Z,18.39
2022-10-20T11:46:20.712Z,18.39
2022-10-20T11:48:51.742Z,18.40
2022-10-20T11:51:28.198Z,18.39
2022-10-20T11:54:33.106Z,18.39
2022-10-20T11:57:09.341Z,18.37
2022-10-20T12:00:00.965Z,18.38
2022-10-20T12:02:40.513Z,18.38
2022-10-20T12:05:16.969Z,18.37
2022-10-20T12:08:17.610Z,18.37
2022-10-20T12:11:09.424Z,18.37
2022-10-20T12:14:03.022Z,18.37
2022-10-20T12:16:51.817Z,18.36
2022-10-20T12:19:30.900Z,18.36
2022-10-20T12:22:13.506Z,18.36
2022-10-20T12:25:00.911Z,18.36
2022-10-20T12:27:28.251Z,18.35
2022-10-20T12:30:39.682Z,18.36
2022-10-20T12:33:19.403Z,18.36
2022-10-20T12:36:17.782Z,18.36
2022-10-20T12:38:52.769Z,18.35
2022-10-20T12:41:35.655Z,18.35
2022-10-20T12:44:07.180Z,18.37
2022-10-20T12:46:42.544Z,18.36
2022-10-20T12:49:24.374Z,18.36
2022-10-20T12:51:54.971Z,18.37
2022-10-20T12:54:57.821Z,18.37
2022-10-20T12:57:38.359Z,18.38
2022-10-20T13:00:08.260Z,18.38
2022-10-20T13:02:53.226Z,18.40
2022-10-20T13:05:29.277Z,18.42
2022-10-20T13:08:00.649Z,18.42
2022-10-20T13:10:29.040Z,18.43
2022-10-20T13:13:03.318Z,18.45
2022-10-20T13:15:42.633Z,18.47
2022-10-20T13:18:13.301Z,18.48
2022-10-20T13:20:40.538Z,18.50
2022-10-20T13:23:15.222Z,18.51
2022-10-20T13:25:52.166Z,18.52
2022-10-20T13:28:31.581Z,18.53
2022-10-20T13:31:30.972Z,18.54
2022-10-20T13:34:20.938Z,18.56
2022-10-20T13:37:09.814Z,18.56
2022-10-20T13:39:48.731Z,18.57
2022-10-20T13:42:18.989Z,18.58
2022-10-20T13:44:52.198Z,18.58
2022-10-20T13:47:38.310Z,18.58
2022-10-20T13:50:10.988Z,18.59
2022-10-20T13:52:42.830Z,18.60
2022-10-20T13:55:18.300Z,18.59
2022-10-20T13:57:55.721Z,18.61
2022-10-20T14:00:31.957Z,18.61
2022-10-20T14:03:04.019Z,18.62
2022-10-20T14:05:38.104Z,18.63
2022-10-20T14:08:14.437Z,18.62
2022-10-20T14:10:54.512Z,18.63
2022-10-20T14:13:26.229Z,18.63
2022-10-20T14:15:56.602Z,18.64
2022-10-20T14:18:29.806Z,18.64
2022-10-20T14:20:57.309Z,18.64
2022-10-20T14:23:25.582Z,18.65
2022-10-20T14:25:54.374Z,18.65
2022-10-20T14:28:22.466Z,18.65
2022-10-20T14:30:51.594Z,18.65
2022-10-20T14:33:19.197Z,18.65
2022-10-20T14:35:52.665Z,18.62
2022-10-20T14:38:39.013Z,18.63
2022-10-20T14:41:08.811Z,18.63
2022-10-20T14:43:39.572Z,18.63
2022-10-20T14:46:11.053Z,18.62
2022-10-20T14:48:44.756Z,18.62
2022-10-20T14:51:45.371Z,18.61
2022-10-20T14:54:20.511Z,18.62
2022-10-20T14:56:54.084Z,18.61
2022-10-20T14:59:24.126Z,18.61
2022-10-20T15:01:58.697Z,18.61
2022-10-20T15:04:27.009Z,18.60
2022-10-20T15:07:21.422Z,18.58
2022-10-20T15:09:55.055Z,18.56
2022-10-20T15:12:39.021Z,18.55
2022-10-20T15:15:18.867Z,18.54
2022-10-20T15:17:49.053Z,18.54
2022-10-20T15:20:43.677Z,18.53
2022-10-20T15:23:11.150Z,18.52
2022-10-20T15:25:43.579Z,18.50
2022-10-20T15:28:39.800Z,18.49
2022-10-20T15:31:19.544Z,18.48
2022-10-20T15:33:48.938Z,18.48
2022-10-20T15:36:16.483Z,18.45
2022-10-20T15:38:44.035Z,18.45
2022-10-20T15:41:16.601Z,18.44
2022-10-20T15:43:44.110Z,18.42
2022-10-20T15:46:13.177Z,18.42
2022-10-20T15:48:41.638Z,18.40
2022-10-20T15:51:36.597Z,18.39
2022-10-20T15:54:04.275Z,18.38
2022-10-20T15:56:33.685Z,18.38
2022-10-20T15:59:01.587Z,18.37
2022-10-20T16:01:29.929Z,18.36
2022-10-20T16:03:57.421Z,18.36
2022-10-20T16:06:25.146Z,18.35
2022-10-20T16:08:52.698Z,18.33
2022-10-20T16:11:21.545Z,18.33
2022-10-20T16:13:49.490Z,18.32
2022-10-20T16:16:19.843Z,18.32
2022-10-20T16:18:47.205Z,18.33
2022-10-20T16:21:14.900Z,18.31
2022-10-20T16:23:44.890Z,18.31
2022-10-20T16:26:14.964Z,18.32
2022-10-20T16:28:42.501Z,18.30
2022-10-20T16:31:14.019Z,18.31
2022-10-20T16:33:42.217Z,18.30
2022-10-20T16:36:12.246Z,18.30
2022-10-20T16:38:40.462Z,18.30
2022-10-20T16:41:14.174Z,18.30
2022-10-20T16:43:44.184Z,18.28
2022-10-20T16:46:14.534Z,18.30
2022-10-20T16:48:42.843Z,18.29
2022-10-20T16:51:15.081Z,18.29
2022-10-20T16:53:43.017Z,18.30
2022-10-20T16:56:15.158Z,18.31
2022-10-20T16:58:45.985Z,18.30
2022-10-20T17:01:15.979Z,18.31
2022-10-20T17:03:45.477Z,18.30
2022-10-20T17:06:14.674Z,18.32
2022-10-20T17:08:42.187Z,18.32
2022-10-20T17:11:22.382Z,18.33
2022-10-20T17:13:50.256Z,18.34
2022-10-20T17:16:22.544Z,18.35
2022-10-20T17:18:53.763Z,18.36
2022-10-20T17:21:21.837Z,18.38
2022-10-20T17:23:49.197Z,18.39
2022-10-20T17:26:19.987Z,18.39
2022-10-20T17:28:48.947Z,18.40
2022-10-20T17:31:17.836Z,18.42
2022-10-20T17:33:46.588Z,18.42
2022-10-20T17:36:14.591Z,18.44
2022-10-20T17:38:42.455Z,18.45
2022-10-20T17:41:15.273Z,18.47
2022-10-20T17:43:42.809Z,18.47
2022-10-20T17:46:17.967Z,18.47
2022-10-20T17:48:45.845Z,18.50
2022-10-20T17:51:16.544Z,18.50
2022-10-20T17:53:47.990Z,18.53
2022-10-20T17:56:23.159Z,18.54
2022-10-20T17:58:51.902Z,18.55
2022-10-20T18:01:24.349Z,18.55
2022-10-20T18:04:00.384Z,18.55
2022-10-20T18:06:34.092Z,18.56
2022-10-20T18:09:05.550Z,18.56
2022-10-20T18:11:34.931Z,18.58
2022-10-20T18:14:03.074Z,18.58
2022-10-20T18:16:33.541Z,18.58
2022-10-20T18:19:01.240Z,18.59
2022-10-20T18:21:30.558Z,18.59
2022-10-20T18:24:07.791Z,18.60
2022-10-20T18:26:37.129Z,18.61
2022-10-20T18:29:06.604Z,18.61
2022-10-20T18:31:35.971Z,18.61
2022-10-20T18:34:07.457Z,18.61
2022-10-20T18:36:41.856Z,18.63
2022-10-20T18:39:13.656Z,18.64
2022-10-20T18:41:43.118Z,18.64
2022-10-20T18:44:17.310Z,18.63
2022-10-20T18:46:46.459Z,18.64
2022-10-20T18:49:15.958Z,18.64
2022-10-20T18:51:45.464Z,18.64
2022-10-20T18:54:12.809Z,18.65
2022-10-20T18:56:40.446Z,18.65
2022-10-20T18:59:12.112Z,18.66
2022-10-20T19:01:41.130Z,18.66
2022-10-20T19:04:10.125Z,18.67
2022-10-20T19:06:41.092Z,18.67
2022-10-20T19:09:14.696Z,18.67
2022-10-20T19:11:43.503Z,18.67
2022-10-20T19:14:11.762Z,18.68
2022-10-20T19:16:41.138Z,18.68
2022-10-20T19:19:09.486Z,18.69
2022-10-20T19:21:37.591Z,18.68
2022-10-20T19:24:14.625Z,18.69
2022-10-20T19:26:57.033Z,18.69
2022-10-20T19:29:35.726Z,18.69
2022-10-20T19:32:05.606Z,18.69
2022-10-20T19:34:39.007Z,18.68
2022-10-20T19:37:07.768Z,18.71
2022-10-20T19:39:40.536Z,18.72
2022-10-20T19:42:09.414Z,18.74
2022-10-20T19:44:37.483Z,18.75
2022-10-20T19:47:06.358Z,18.76
2022-10-20T19:49:34.022Z,18.78
2022-10-20T19:52:01.928Z,18.78
2022-10-20T19:54:29.298Z,18.78
2022-10-20T19:56:56.952Z,18.79
2022-10-20T19:59:25.088Z,18.79
2022-10-20T20:01:52.832Z,18.79
2022-10-20T20:04:21.080Z,18.79
2022-10-20T20:06:49.049Z,18.79
2022-10-20T20:09:17.048Z,18.79
2022-10-20T20:11:44.555Z,18.79
2022-10-20T20:14:15.318Z,18.78
2022-10-20T20:16:45.774Z,18.78
2022-10-20T20:19:15.650Z,18.78
2022-10-20T20:21:43.607Z,18.79
2022-10-20T20:24:12.948Z,18.78
2022-10-20T20:26:40.728Z,18.78
2022-10-20T20:29:08.217Z,18.75
2022-10-20T20:31:36.574Z,18.74
2022-10-20T20:34:04.031Z,18.71
2022-10-20T20:36:31.581Z,18.69
2022-10-20T20:38:59.754Z,18.68
2022-10-20T20:41:30.268Z,18.66
2022-10-20T20:43:58.070Z,18.65
2022-10-20T20:46:30.740Z,18.66
2022-10-20T20:48:58.224Z,18.64
2022-10-20T20:51:26.923Z,18.63
2022-10-20T20:53:54.990Z,18.62
2022-10-20T20:56:24.572Z,18.61
2022-10-20T20:58:55.787Z,18.62
2022-10-20T21:01:31.170Z,18.60
2022-10-20T21:04:01.479Z,18.60
2022-10-20T21:06:33.980Z,18.59
2022-10-20T21:09:11.872Z,18.58
2022-10-20T21:11:39.522Z,18.59
2022-10-20T21:14:06.821Z,18.57
2022-10-20T21:16:36.630Z,18.56
2022-10-20T21:19:06.183Z,18.55
2022-10-20T21:21:36.845Z,18.56
2022-10-20T21:24:05.765Z,18.53
2022-10-20T21:26:33.810Z,18.54
2022-10-20T21:29:01.994Z,18.54
2022-10-20T21:31:30.495Z,18.52
2022-10-20T21:34:00.249Z,18.50
2022-10-20T21:36:29.934Z,18.50
2022-10-20T21:38:58.815Z,18.50
2022-10-20T21:41:29.691Z,18.49
2022-10-20T21:43:59.615Z,18.49
2022-10-20T21:46:39.630Z,18.47
2022-10-20T21:50:16.414Z,18.47
2022-10-20T21:52:44.332Z,18.46
2022-10-20T21:55:12.294Z,18.45
2022-10-20T21:57:41.524Z,18.45
2022-10-20T22:00:10.428Z,18.44
2022-10-20T22:02:40.139Z,18.43
2022-10-20T22:05:07.943Z,18.42
2022-10-20T22:07:36.608Z,18.42
2022-10-20T22:10:05.236Z,18.41
2022-10-20T22:12:33.363Z,18.41
2022-10-20T22:15:00.961Z,18.40
2022-10-20T22:17:29.270Z,18.39
2022-10-20T22:19:56.605Z,18.39
2022-10-20T22:22:24.646Z,18.38
2022-10-20T22:24:52.207Z,18.37
2022-10-20T22:27:31.419Z,18.36
2022-10-20T22:30:07.606Z,18.36
2022-10-20T22:32:35.958Z,18.36
2022-10-20T22:39:22.589Z,18.35
2022-10-20T22:41:49.854Z,18.35
2022-10-20T22:44:17.581Z,18.35
2022-10-20T22:46:45.112Z,18.34
2022-10-20T22:49:14.098Z,18.32
2022-10-20T22:51:42.037Z,18.32
2022-10-20T22:54:09.940Z,18.31
2022-10-20T22:56:37.390Z,18.31
2022-10-20T22:59:05.079Z,18.30
2022-10-20T23:01:32.722Z,18.30
2022-10-20T23:04:00.463Z,18.30
2022-10-20T23:09:15.856Z,18.29
2022-10-20T23:11:43.341Z,18.27
2022-10-20T23:14:10.994Z,18.26
2022-10-20T23:16:39.608Z,18.27
2022-10-20T23:19:07.270Z,18.26
2022-10-20T23:21:37.219Z,18.25
2022-10-20T23:24:06.479Z,18.25
2022-10-20T23:26:33.980Z,18.24
2022-10-20T23:29:01.741Z,18.24
2022-10-20T23:31:30.333Z,18.23
2022-10-20T23:33:58.268Z,18.22
2022-10-20T23:36:25.760Z,18.21
2022-10-20T23:38:53.975Z,18.21
2022-10-20T23:41:21.985Z,18.20
2022-10-20T23:43:49.648Z,18.20
2022-10-20T23:46:17.125Z,18.19
2022-10-20T23:48:44.819Z,18.19
2022-10-20T23:51:12.275Z,18.18
2022-10-20T23:53:40.057Z,18.18
2022-10-20T23:56:07.786Z,18.17
2022-10-20T23:58:36.413Z,18.18
